Time;durP1;ratioP1;P1;durP2;ratioP2;P2;SDS_P1;SDS_P2;PMS_P1;PMS_P2;Temp;Humidity;BMP_temperature;BMP_pressure;BME280_temperature;BME280_humidity;BME280_pressure;Samples;Min_cycle;Max_cycle;Signal;HPM_P1;HPM_P2
2022/05/06 00:01:06;;;;;;;7.28;2.63;;;16.10;89.10;;;;;;5026591;28;20034;-74
2022/05/06 00:03:31;;;;;;;3.67;1.77;;;16.00;89.30;;;;;;5016229;28;20080;-74
2022/05/06 00:05:57;;;;;;;4.80;1.80;;;16.00;89.40;;;;;;5015951;28;20156;-74
2022/05/06 00:08:23;;;;;;;6.22;2.38;;;16.10;89.80;;;;;;5016197;28;20021;-74
2022/05/06 00:10:49;;;;;;;3.33;1.75;;;16.10;89.30;;;;;;5013632;28;20045;-74
2022/05/06 00:13:14;;;;;;;4.15;1.92;;;16.10;89.20;;;;;;5011061;28;20018;-75
2022/05/06 00:15:40;;;;;;;4.70;1.55;;;16.00;89.70;;;;;;5018076;28;20079;-74
2022/05/06 00:18:06;;;;;;;4.35;1.83;;;16.10;89.60;;;;;;5019416;28;20057;-74
2022/05/06 00:20:32;;;;;;;4.13;2.00;;;16.10;89.50;;;;;;5018871;28;20038;-74
2022/05/06 00:22:57;;;;;;;4.22;1.67;;;16.10;89.60;;;;;;5018576;28;20034;-74
2022/05/06 00:25:24;;;;;;;4.07;1.90;;;16.10;90.00;;;;;;5015674;28;20041;-74
2022/05/06 00:27:50;;;;;;;4.93;1.80;;;16.10;89.60;;;;;;5018048;28;20113;-74
2022/05/06 00:30:16;;;;;;;4.40;1.75;;;16.10;89.40;;;;;;5017869;28;20125;-75
2022/05/06 00:32:41;;;;;;;4.28;1.70;;;16.10;89.80;;;;;;5019116;28;20112;-74
2022/05/06 00:35:08;;;;;;;3.78;1.83;;;16.10;89.90;;;;;;5018980;28;20064;-74
2022/05/06 00:37:33;;;;;;;5.95;1.85;;;16.10;89.80;;;;;;5015576;28;20009;-74
2022/05/06 00:39:59;;;;;;;5.00;1.80;;;16.10;90.20;;;;;;5018349;28;20373;-73
2022/05/06 00:42:25;;;;;;;5.47;2.58;;;16.10;90.10;;;;;;5018888;28;20026;-74
2022/05/06 00:44:50;;;;;;;4.75;2.17;;;16.10;90.20;;;;;;5018742;28;20030;-74
2022/05/06 00:47:20;;;;;;;5.63;2.20;;;16.00;90.40;;;;;;5019273;28;20551;-74
2022/05/06 00:49:46;;;;;;;5.20;2.28;;;16.00;90.60;;;;;;5016713;28;20037;-74
2022/05/06 00:52:12;;;;;;;4.90;2.33;;;16.00;90.50;;;;;;5031079;28;20061;-74
2022/05/06 00:54:40;;;;;;;6.40;2.50;;;16.00;90.70;;;;;;5018422;28;20100;-74
2022/05/06 00:57:08;;;;;;;4.28;1.95;;;16.00;90.70;;;;;;5018385;28;20026;-74
2022/05/06 01:00:17;;;;;;;4.57;2.13;;;15.90;90.70;;;;;;5018544;28;20037;-74
2022/05/06 01:02:20;;;;;;;5.50;2.05;;;15.90;91.00;;;;;;5018610;28;20116;-74
2022/05/06 01:04:46;;;;;;;3.40;1.80;;;15.90;91.00;;;;;;5016094;28;20104;-74
2022/05/06 01:07:13;;;;;;;3.47;1.90;;;15.80;91.10;;;;;;5016273;28;20428;-74
2022/05/06 01:09:39;;;;;;;4.10;1.88;;;15.90;91.20;;;;;;5017584;28;20392;-74
2022/05/06 01:12:06;;;;;;;4.38;2.45;;;15.80;91.20;;;;;;5018349;28;20105;-74
2022/05/06 01:14:33;;;;;;;5.25;2.20;;;15.80;91.60;;;;;;5018228;28;20416;-74
2022/05/06 01:16:59;;;;;;;4.50;2.00;;;15.80;91.40;;;;;;5016504;28;20064;-74
2022/05/06 01:19:25;;;;;;;3.67;1.88;;;15.70;91.60;;;;;;5015380;28;20029;-75
2022/05/06 01:21:55;;;;;;;7.72;2.35;;;15.70;91.70;;;;;;5028792;28;20026;-74
2022/05/06 01:24:21;;;;;;;3.60;1.80;;;15.60;92.00;;;;;;5018893;28;20073;-74
2022/05/06 01:26:59;;;;;;;5.40;2.65;;;15.60;92.00;;;;;;5015064;28;20025;-74
2022/05/06 01:29:27;;;;;;;5.10;2.20;;;15.60;92.00;;;;;;5018083;28;20077;-74
2022/05/06 01:31:53;;;;;;;4.72;2.30;;;15.50;92.30;;;;;;5016883;28;20710;-74
2022/05/06 01:34:29;;;;;;;3.92;2.28;;;15.50;92.20;;;;;;5015219;28;20026;-74
2022/05/06 01:36:57;;;;;;;5.13;2.47;;;15.50;92.30;;;;;;5017916;28;20057;-75
2022/05/06 01:39:29;;;;;;;4.40;2.58;;;15.50;92.20;;;;;;5017545;28;20389;-74
2022/05/06 01:41:58;;;;;;;4.65;2.30;;;15.40;92.50;;;;;;5017973;28;20034;-74
2022/05/06 01:44:30;;;;;;;5.90;2.20;;;15.40;92.30;;;;;;5018197;28;20123;-74
2022/05/06 01:46:59;;;;;;;6.55;2.40;;;15.50;92.30;;;;;;5016822;28;20026;-74
2022/05/06 01:49:26;;;;;;;4.45;2.13;;;15.50;92.00;;;;;;5012810;28;20117;-74
2022/05/06 01:51:54;;;;;;;5.07;2.30;;;15.50;91.90;;;;;;5017199;28;20026;-74
2022/05/06 01:54:20;;;;;;;4.93;2.30;;;15.50;91.80;;;;;;5017729;28;20034;-74
2022/05/06 01:56:46;;;;;;;4.45;2.65;;;15.50;91.70;;;;;;5017488;28;20028;-74
2022/05/06 01:59:13;;;;;;;6.70;2.75;;;15.50;91.80;;;;;;5016310;28;20124;-73
2022/05/06 02:01:39;;;;;;;5.53;3.17;;;15.60;91.60;;;;;;5028880;28;20022;-75
2022/05/06 02:06:49;;;;;;;6.72;2.88;;;15.50;91.70;;;;;;5016559;28;20080;-74
2022/05/06 02:09:16;;;;;;;5.55;2.88;;;15.50;91.50;;;;;;5017498;28;20026;-75
2022/05/06 02:11:42;;;;;;;5.80;2.95;;;15.40;91.20;;;;;;5017572;28;20026;-74
2022/05/06 02:14:08;;;;;;;7.85;2.50;;;15.40;91.40;;;;;;5017514;28;20036;-74
2022/05/06 02:16:34;;;;;;;4.45;2.92;;;15.50;91.40;;;;;;5017418;28;20033;-75
2022/05/06 02:19:00;;;;;;;6.32;3.03;;;15.40;91.60;;;;;;5017628;28;20025;-74
2022/05/06 02:21:25;;;;;;;5.85;2.72;;;15.50;91.10;;;;;;5017349;28;20455;-75
2022/05/06 02:23:51;;;;;;;6.22;2.95;;;15.50;90.80;;;;;;5016799;28;20022;-74
2022/05/06 02:26:17;;;;;;;5.28;3.00;;;15.60;90.70;;;;;;5017530;28;20099;-75
2022/05/06 02:28:43;;;;;;;5.38;2.70;;;15.50;90.80;;;;;;5014400;28;20022;-74
2022/05/06 02:33:53;;;;;;;7.30;3.00;;;15.40;91.00;;;;;;5016643;28;20080;-73
2022/05/06 02:36:18;;;;;;;6.10;3.10;;;15.30;91.00;;;;;;5024526;28;20041;-74
2022/05/06 02:38:44;;;;;;;6.65;3.10;;;15.40;91.20;;;;;;5022148;28;20882;-74
2022/05/06 02:41:10;;;;;;;6.82;2.80;;;15.30;91.20;;;;;;5016975;28;20079;-74
2022/05/06 02:43:36;;;;;;;4.40;2.55;;;15.40;91.20;;;;;;5013210;28;20020;-74
2022/05/06 02:46:02;;;;;;;6.55;2.97;;;15.40;91.30;;;;;;5015816;28;20133;-75
2022/05/06 02:48:28;;;;;;;5.13;2.65;;;15.50;91.10;;;;;;5025530;28;20478;-74
2022/05/06 02:50:53;;;;;;;5.63;2.90;;;15.40;91.00;;;;;;5021651;28;20100;-74
2022/05/06 02:53:21;;;;;;;6.65;3.17;;;15.50;91.10;;;;;;5016312;28;20029;-75
2022/05/06 02:55:47;;;;;;;5.88;2.88;;;15.40;91.20;;;;;;5014753;28;20096;-74
2022/05/06 02:58:12;;;;;;;6.30;2.80;;;15.50;91.60;;;;;;5014508;28;20481;-75
2022/05/06 03:00:38;;;;;;;4.85;2.85;;;15.50;91.10;;;;;;5016468;28;20037;-74
2022/05/06 03:03:05;;;;;;;6.75;2.83;;;15.50;91.40;;;;;;5016500;28;20025;-74
2022/05/06 03:05:32;;;;;;;5.22;2.60;;;15.50;91.40;;;;;;5016947;28;20042;-74
2022/05/06 03:07:58;;;;;;;4.63;2.95;;;15.50;91.20;;;;;;5027801;28;20078;-74
2022/05/06 03:10:24;;;;;;;7.85;2.88;;;15.40;91.40;;;;;;5013351;28;20037;-74
2022/05/06 03:12:50;;;;;;;4.88;2.75;;;15.50;91.60;;;;;;5016338;28;20037;-74
2022/05/06 03:15:16;;;;;;;6.75;2.60;;;15.50;91.40;;;;;;5016292;28;20104;-74
2022/05/06 03:17:42;;;;;;;5.80;2.42;;;15.60;91.40;;;;;;5019306;28;20021;-74
2022/05/06 03:20:09;;;;;;;4.78;2.90;;;15.50;91.40;;;;;;5027508;28;20047;-74
2022/05/06 03:22:49;;;;;;;5.00;2.42;;;15.50;91.40;;;;;;5012350;28;20104;-74
2022/05/06 03:25:16;;;;;;;4.32;2.40;;;15.50;91.50;;;;;;5014622;28;20034;-75
2022/05/06 03:28:01;;;;;;;4.55;2.40;;;15.50;91.60;;;;;;5015976;28;20559;-74
2022/05/06 03:30:32;;;;;;;3.92;2.30;;;15.50;91.40;;;;;;5016772;28;20472;-75
2022/05/06 03:33:01;;;;;;;5.93;2.60;;;15.50;91.50;;;;;;5016963;28;20018;-74
2022/05/06 03:35:28;;;;;;;4.60;2.58;;;15.40;91.70;;;;;;5016007;28;20030;-75
2022/05/06 03:37:54;;;;;;;5.45;2.63;;;15.40;91.70;;;;;;5014941;28;20037;-74
2022/05/06 03:40:20;;;;;;;4.38;2.30;;;15.40;91.70;;;;;;5013572;28;20030;-74
2022/05/06 03:42:46;;;;;;;5.22;2.30;;;15.40;91.90;;;;;;5015786;28;20030;-74
2022/05/06 03:45:13;;;;;;;5.95;2.40;;;15.40;92.00;;;;;;5016451;28;20520;-75
2022/05/06 03:47:38;;;;;;;5.30;2.40;;;15.30;92.00;;;;;;5016344;28;20030;-74
2022/05/06 03:52:49;;;;;;;4.25;2.35;;;15.40;92.10;;;;;;5017291;28;20032;-74
2022/05/06 03:55:15;;;;;;;3.95;2.40;;;15.30;92.30;;;;;;5017245;28;20032;-74
2022/05/06 03:57:42;;;;;;;7.43;2.53;;;15.20;92.50;;;;;;5030300;28;20038;-74
2022/05/06 04:00:12;;;;;;;4.30;2.55;;;15.10;92.80;;;;;;5028179;28;20500;-74
2022/05/06 04:02:38;;;;;;;5.35;2.67;;;15.10;93.00;;;;;;5027113;28;20061;-74
2022/05/06 04:05:05;;;;;;;4.20;2.10;;;15.10;92.80;;;;;;5019423;28;20033;-74
2022/05/06 04:07:31;;;;;;;5.75;3.00;;;15.10;93.00;;;;;;5015605;28;20022;-74
2022/05/06 04:09:56;;;;;;;5.13;2.67;;;15.00;93.20;;;;;;5019101;28;20034;-74
2022/05/06 04:12:23;;;;;;;4.85;2.35;;;15.00;93.00;;;;;;5019889;28;20088;-74
2022/05/06 04:14:52;;;;;;;7.60;2.75;;;15.10;92.80;;;;;;5019766;28;20065;-74
2022/05/06 04:17:20;;;;;;;4.40;2.40;;;15.20;92.70;;;;;;5019765;28;20021;-74
2022/05/06 04:25:16;;;;;;;4.88;2.58;;;15.10;92.50;;;;;;5030926;28;20040;-75
2022/05/06 04:27:43;;;;;;;7.20;2.40;;;15.10;92.30;;;;;;5018739;28;20116;-73
2022/05/06 04:30:11;;;;;;;5.45;2.67;;;15.20;92.20;;;;;;5019373;28;20046;-74
2022/05/06 04:32:38;;;;;;;6.50;2.75;;;15.20;92.30;;;;;;5019357;28;20030;-74
2022/05/06 04:35:05;;;;;;;7.97;2.75;;;15.10;92.10;;;;;;5016740;28;20511;-74
2022/05/06 04:37:32;;;;;;;4.65;2.40;;;15.20;92.20;;;;;;5015075;28;20072;-74
2022/05/06 04:39:58;;;;;;;5.97;2.72;;;15.20;92.20;;;;;;5018657;28;20496;-74
2022/05/06 04:42:24;;;;;;;7.13;2.97;;;15.20;92.00;;;;;;5019231;28;20034;-74
2022/05/06 04:44:50;;;;;;;5.47;3.03;;;15.10;92.20;;;;;;5019208;28;20480;-74
2022/05/06 04:47:16;;;;;;;5.18;2.92;;;15.10;92.20;;;;;;5019460;28;20080;-74
2022/05/06 04:49:41;;;;;;;5.45;2.75;;;15.10;92.30;;;;;;5015775;28;20022;-74
2022/05/06 04:52:07;;;;;;;5.57;2.60;;;15.10;92.40;;;;;;5015462;28;20029;-74
2022/05/06 04:54:34;;;;;;;5.05;3.00;;;15.20;92.30;;;;;;5019181;28;20531;-73
2022/05/06 04:56:59;;;;;;;5.38;2.85;;;15.10;92.40;;;;;;5018981;28;20041;-74
2022/05/06 04:59:25;;;;;;;5.05;2.80;;;15.10;92.40;;;;;;5018734;28;20132;-74
2022/05/06 05:01:51;;;;;;;5.00;2.80;;;15.10;92.70;;;;;;5016773;28;20029;-74
2022/05/06 05:04:17;;;;;;;6.32;2.90;;;15.10;92.40;;;;;;5016140;28;20385;-74
2022/05/06 05:06:42;;;;;;;6.38;2.75;;;15.10;92.40;;;;;;5018202;28;20053;-73
2022/05/06 05:09:08;;;;;;;7.10;3.38;;;15.10;92.60;;;;;;5018725;28;20033;-74
2022/05/06 05:11:35;;;;;;;7.82;3.25;;;15.20;92.40;;;;;;5019723;28;20040;-74
2022/05/06 05:14:04;;;;;;;5.32;3.00;;;15.20;92.50;;;;;;5026014;28;20049;-74
2022/05/06 05:16:30;;;;;;;6.82;3.20;;;15.20;92.50;;;;;;5020980;28;20168;-74
2022/05/06 05:18:56;;;;;;;5.60;3.03;;;15.20;92.70;;;;;;5017502;28;20116;-73
2022/05/06 05:21:22;;;;;;;7.50;3.25;;;15.30;92.30;;;;;;5018609;28;20064;-74
2022/05/06 05:23:48;;;;;;;6.22;3.20;;;15.30;92.30;;;;;;5018426;28;20033;-73
2022/05/06 05:26:13;;;;;;;5.25;2.90;;;15.30;92.40;;;;;;5018428;28;20030;-74
2022/05/06 05:28:39;;;;;;;7.47;3.33;;;15.30;92.20;;;;;;5015105;28;20061;-73
2022/05/06 05:31:05;;;;;;;7.05;3.08;;;15.40;92.60;;;;;;5020202;28;20053;-74
2022/05/06 05:33:31;;;;;;;6.22;3.17;;;15.40;92.20;;;;;;5028298;28;20022;-74
2022/05/06 05:35:57;;;;;;;6.95;3.10;;;15.40;92.20;;;;;;5022226;28;20025;-73
2022/05/06 05:38:22;;;;;;;5.18;3.05;;;15.60;92.20;;;;;;5024609;28;20041;-74
2022/05/06 05:40:48;;;;;;;10.98;3.70;;;15.60;92.10;;;;;;5015793;28;20571;-75
2022/05/06 05:48:50;;;;;;;;;;;15.70;92.00;;;;;;4980466;28;20069;-75
2022/05/06 05:51:16;;;;;;;6.78;3.00;;;15.70;92.40;;;;;;4981134;28;19937;-75
2022/05/06 05:53:42;;;;;;;5.30;2.90;;;15.80;91.90;;;;;;4979211;28;20030;-76
2022/05/06 05:56:08;;;;;;;8.23;3.33;;;15.90;92.20;;;;;;4985910;28;20186;-74
2022/05/06 05:58:34;;;;;;;7.50;3.05;;;15.80;92.30;;;;;;4981779;28;20061;-75
2022/05/06 06:01:03;;;;;;;10.88;3.00;;;15.90;91.90;;;;;;4971755;28;20069;-74
2022/05/06 06:03:29;;;;;;;6.47;3.33;;;16.00;92.00;;;;;;4983108;28;20061;-72
2022/05/06 06:05:54;;;;;;;7.07;3.50;;;16.00;92.10;;;;;;4978962;28;20046;-72
2022/05/06 06:08:21;;;;;;;6.93;3.45;;;16.10;92.00;;;;;;4964094;28;20512;-74
2022/05/06 06:10:47;;;;;;;7.13;3.28;;;16.10;91.80;;;;;;4985894;28;20568;-73
2022/05/06 06:13:16;;;;;;;7.30;3.03;;;16.20;91.90;;;;;;4977495;28;20027;-72
2022/05/06 06:15:42;;;;;;;9.48;3.05;;;16.20;91.80;;;;;;4990004;28;20583;-72
2022/05/06 06:18:07;;;;;;;6.05;3.22;;;16.30;91.80;;;;;;4981269;28;20026;-73
2022/05/06 06:20:33;;;;;;;7.28;3.30;;;16.40;91.40;;;;;;4985724;28;20043;-72
2022/05/06 06:22:59;;;;;;;5.70;3.10;;;16.40;91.10;;;;;;4997991;28;20079;-73
2022/05/06 06:25:25;;;;;;;6.40;3.10;;;16.50;91.10;;;;;;5012939;28;20500;-73
2022/05/06 06:27:50;;;;;;;7.72;2.97;;;16.60;90.90;;;;;;5015698;28;20033;-73
2022/05/06 06:30:16;;;;;;;6.20;2.92;;;16.60;90.50;;;;;;5022998;28;20025;-73
2022/05/06 06:32:42;;;;;;;7.55;3.00;;;16.70;90.40;;;;;;5019087;28;20025;-73
2022/05/06 06:35:08;;;;;;;6.28;3.00;;;16.80;90.60;;;;;;5027747;28;20033;-73
2022/05/06 06:37:34;;;;;;;7.22;2.70;;;16.90;90.00;;;;;;5012817;28;20025;-73
2022/05/06 06:39:59;;;;;;;6.47;3.17;;;16.90;90.20;;;;;;5025448;28;20124;-73
2022/05/06 06:42:25;;;;;;;6.07;3.25;;;17.00;90.20;;;;;;5016427;28;20051;-73
2022/05/06 06:44:51;;;;;;;6.95;3.00;;;17.10;90.60;;;;;;5015305;28;20053;-73
2022/05/06 06:47:17;;;;;;;8.48;2.97;;;17.10;89.80;;;;;;5016684;28;20033;-74
2022/05/06 06:49:45;;;;;;;5.88;3.05;;;17.20;90.20;;;;;;5014186;28;20017;-71
2022/05/06 06:52:10;;;;;;;8.20;3.05;;;17.30;88.20;;;;;;5022873;28;20044;-73
2022/05/06 06:54:36;;;;;;;6.70;3.10;;;17.30;87.20;;;;;;5027534;28;20494;-73
2022/05/06 06:57:02;;;;;;;6.22;2.80;;;17.40;88.00;;;;;;5020332;28;20117;-73
2022/05/06 06:59:28;;;;;;;9.82;3.10;;;17.40;87.30;;;;;;5018888;28;20748;-70
2022/05/06 07:01:53;;;;;;;6.40;2.63;;;17.40;86.90;;;;;;5011217;28;20033;-71
2022/05/06 07:04:19;;;;;;;6.47;2.85;;;17.50;86.30;;;;;;5010622;28;20021;-71
2022/05/06 07:12:13;;;;;;;6.80;2.90;;;17.70;85.70;;;;;;5014770;28;19916;-71
2022/05/06 07:14:39;;;;;;;7.68;2.92;;;17.70;85.70;;;;;;5012548;28;20030;-71
2022/05/06 07:17:05;;;;;;;5.88;3.00;;;17.70;84.90;;;;;;5013113;28;20033;-70
2022/05/06 07:19:34;;;;;;;7.45;2.80;;;17.80;84.40;;;;;;5008363;28;20125;-70
2022/05/06 07:22:00;;;;;;;6.28;2.67;;;17.80;85.60;;;;;;5023476;28;20108;-70
2022/05/06 07:24:26;;;;;;;8.02;2.95;;;17.90;85.30;;;;;;5016014;28;20113;-71
2022/05/06 07:26:56;;;;;;;5.95;3.10;;;18.00;85.00;;;;;;5017806;28;20451;-71
2022/05/06 07:29:23;;;;;;;5.68;2.97;;;18.00;84.30;;;;;;5016010;28;20084;-70
2022/05/06 07:31:49;;;;;;;5.50;2.78;;;18.10;84.60;;;;;;5021541;28;20083;-71
2022/05/06 07:34:15;;;;;;;6.18;2.72;;;18.20;83.80;;;;;;5014925;28;20030;-71
2022/05/06 07:36:42;;;;;;;6.22;3.10;;;18.30;84.20;;;;;;5028032;28;20056;-71
2022/05/06 07:39:09;;;;;;;9.77;3.15;;;18.30;83.30;;;;;;5021845;28;20049;-71
2022/05/06 07:41:35;;;;;;;7.38;3.20;;;18.40;83.30;;;;;;5020392;28;20025;-70
2022/05/06 07:44:00;;;;;;;6.85;3.05;;;18.50;83.10;;;;;;5030152;28;20595;-71
2022/05/06 07:46:26;;;;;;;4.95;2.35;;;18.60;83.00;;;;;;5016068;28;20038;-71
2022/05/06 07:48:52;;;;;;;6.97;3.10;;;18.70;82.70;;;;;;5030047;28;20037;-71
2022/05/06 07:51:18;;;;;;;9.65;3.40;;;18.70;81.90;;;;;;5027229;28;20029;-71
2022/05/06 07:53:44;;;;;;;7.18;3.10;;;18.80;81.30;;;;;;5023853;28;20109;-71
2022/05/06 07:56:11;;;;;;;7.55;2.80;;;18.90;82.20;;;;;;5024974;28;20036;-71
2022/05/06 07:58:40;;;;;;;5.07;2.95;;;19.00;82.70;;;;;;5011772;28;20028;-70
2022/05/06 08:01:06;;;;;;;5.70;3.20;;;19.10;81.30;;;;;;5013192;28;20416;-70
2022/05/06 08:06:17;;;;;;;9.98;3.75;;;19.30;80.00;;;;;;5015426;28;20758;-71
2022/05/06 08:08:43;;;;;;;11.60;3.40;;;19.40;80.90;;;;;;5016074;28;20048;-70
2022/05/06 08:11:08;;;;;;;7.38;3.45;;;19.50;81.00;;;;;;5013603;28;20720;-71
2022/05/06 08:13:34;;;;;;;6.90;3.53;;;19.70;80.80;;;;;;5011075;28;20565;-70
2022/05/06 08:16:00;;;;;;;11.45;3.58;;;19.60;78.70;;;;;;5026899;28;20049;-72
2022/05/06 08:18:26;;;;;;;12.85;3.60;;;19.70;79.00;;;;;;5012019;28;20492;-71
2022/05/06 08:20:52;;;;;;;7.95;3.50;;;19.60;77.00;;;;;;5015958;28;20032;-71
2022/05/06 08:23:21;;;;;;;6.03;3.10;;;19.60;77.80;;;;;;5015497;28;20053;-70
2022/05/06 08:25:47;;;;;;;7.85;3.30;;;19.50;78.00;;;;;;5012447;28;20497;-72
2022/05/06 08:28:14;;;;;;;6.38;2.63;;;19.60;78.50;;;;;;5013504;28;20026;-71
2022/05/06 08:30:40;;;;;;;12.70;3.50;;;19.70;78.80;;;;;;5015375;28;20037;-71
2022/05/06 08:33:06;;;;;;;8.30;3.17;;;19.90;78.10;;;;;;5023055;28;20033;-70
2022/05/06 08:35:32;;;;;;;9.30;3.33;;;19.80;76.50;;;;;;5023540;28;20032;-70
2022/05/06 08:37:58;;;;;;;6.72;3.50;;;19.80;76.90;;;;;;5025659;28;20049;-71
2022/05/06 08:40:31;;;;;;;6.47;3.47;;;19.90;77.50;;;;;;5011971;28;20231;-70
2022/05/06 08:42:57;;;;;;;9.40;3.80;;;19.80;77.50;;;;;;5015202;28;20044;-71
2022/05/06 08:50:55;;;;;;;11.40;3.03;;;20.00;77.60;;;;;;5016121;28;20049;-70
2022/05/06 08:53:22;;;;;;;8.68;3.50;;;20.10;77.00;;;;;;5014640;28;20511;-70
2022/05/06 08:55:53;;;;;;;7.75;3.30;;;20.20;76.80;;;;;;5014700;28;20036;-71
2022/05/06 08:58:19;;;;;;;11.13;3.28;;;20.20;75.90;;;;;;5013039;28;20113;-71
2022/05/06 09:00:45;;;;;;;7.53;3.33;;;20.10;76.40;;;;;;5015397;28;20041;-71
2022/05/06 09:03:15;;;;;;;7.80;3.53;;;20.10;76.50;;;;;;5014447;28;20034;-70
2022/05/06 09:05:52;;;;;;;10.15;3.67;;;20.30;76.50;;;;;;5018795;28;20488;-71
2022/05/06 09:08:18;;;;;;;10.68;3.63;;;20.20;75.70;;;;;;5026141;28;20028;-71
2022/05/06 09:10:59;;;;;;;8.95;4.22;;;20.40;75.70;;;;;;5014453;28;20033;-71
2022/05/06 09:13:26;;;;;;;7.63;3.22;;;20.40;75.60;;;;;;5014385;28;20128;-71
2022/05/06 09:18:37;;;;;;;6.95;3.35;;;20.30;75.70;;;;;;5027892;28;20517;-71
2022/05/06 09:21:10;;;;;;;8.25;3.47;;;20.30;75.80;;;;;;5020279;28;20065;-71
2022/05/06 09:23:36;;;;;;;7.28;3.45;;;20.30;75.20;;;;;;5016817;28;20022;-71
2022/05/06 09:26:01;;;;;;;9.73;3.53;;;20.40;75.30;;;;;;5017110;28;20042;-71
2022/05/06 09:28:30;;;;;;;13.00;5.07;;;20.50;75.60;;;;;;5013063;28;20390;-71
2022/05/06 09:31:10;;;;;;;9.77;4.43;;;20.60;74.90;;;;;;5026024;28;20091;-71
2022/05/06 09:33:41;;;;;;;12.07;4.80;;;20.70;74.90;;;;;;5019592;28;20101;-71
2022/05/06 09:36:23;;;;;;;14.15;5.25;;;21.00;74.50;;;;;;5017325;28;20524;-71
2022/05/06 09:39:04;;;;;;;15.10;3.85;;;21.00;74.10;;;;;;5014077;28;20044;-71
2022/05/06 09:41:31;;;;;;;8.38;3.42;;;21.10;74.10;;;;;;5013896;28;20044;-71
2022/05/06 09:44:01;;;;;;;8.10;3.35;;;21.10;72.60;;;;;;5013245;28;20018;-71
2022/05/06 09:46:27;;;;;;;6.38;3.72;;;21.00;73.00;;;;;;5010701;28;20034;-71
2022/05/06 09:48:57;;;;;;;16.48;4.40;;;20.80;73.60;;;;;;5019760;28;20028;-71
2022/05/06 09:51:33;;;;;;;10.93;4.50;;;21.00;74.20;;;;;;5014124;28;20038;-71
2022/05/06 09:53:59;;;;;;;12.60;4.10;;;21.10;73.60;;;;;;5013180;28;20034;-71
2022/05/06 09:56:27;;;;;;;12.02;4.90;;;21.00;72.80;;;;;;5014127;28;20116;-71
2022/05/06 09:58:54;;;;;;;8.88;3.40;;;21.20;73.30;;;;;;5012320;28;20022;-71
2022/05/06 10:01:21;;;;;;;7.93;3.35;;;21.20;72.70;;;;;;5025661;28;20113;-71
2022/05/06 10:03:47;;;;;;;7.85;3.30;;;21.20;73.90;;;;;;5012401;28;20026;-71
2022/05/06 10:06:13;;;;;;;6.45;2.95;;;21.30;74.30;;;;;;5018938;28;20033;-71
2022/05/06 10:08:47;;;;;;;11.18;3.47;;;21.40;72.40;;;;;;5024304;28;20033;-71
2022/05/06 10:11:14;;;;;;;7.82;3.08;;;21.10;71.40;;;;;;5016780;28;20052;-71
2022/05/06 10:13:46;;;;;;;7.90;3.30;;;21.00;72.70;;;;;;5013183;28;20041;-71
2022/05/06 10:16:12;;;;;;;5.57;2.90;;;21.00;72.60;;;;;;5014863;28;20077;-71
2022/05/06 10:18:40;;;;;;;5.05;2.88;;;20.90;71.80;;;;;;5026287;28;20041;-71
2022/05/06 10:21:07;;;;;;;6.47;3.22;;;21.00;73.10;;;;;;5025447;28;20400;-70
2022/05/06 10:23:55;;;;;;;6.72;3.30;;;21.10;72.90;;;;;;5024590;28;20040;-71
2022/05/06 10:26:39;;;;;;;6.28;3.25;;;21.30;72.30;;;;;;5024932;28;20048;-71
2022/05/06 10:35:01;;;;;;;7.72;3.58;;;21.80;71.50;;;;;;5012639;28;20028;-71
2022/05/06 10:37:36;;;;;;;7.70;2.80;;;22.00;71.10;;;;;;5012369;28;20033;-71
2022/05/06 10:40:24;;;;;;;6.45;2.90;;;22.20;70.60;;;;;;5026967;28;20124;-71
2022/05/06 10:42:50;;;;;;;7.18;2.78;;;22.30;69.30;;;;;;5016267;28;20051;-71
2022/05/06 10:45:26;;;;;;;5.65;2.97;;;22.30;69.20;;;;;;5016190;28;20034;-71
2022/05/06 10:47:52;;;;;;;5.50;2.88;;;22.60;70.30;;;;;;5016434;28;20049;-71
2022/05/06 10:50:21;;;;;;;5.75;2.78;;;22.90;69.90;;;;;;5014858;28;20108;-69
2022/05/06 10:52:47;;;;;;;10.15;3.33;;;22.90;68.80;;;;;;5010400;28;20025;-71
2022/05/06 10:55:15;;;;;;;7.57;3.10;;;23.00;68.60;;;;;;5028753;28;20507;-72
2022/05/06 10:57:49;;;;;;;8.75;3.40;;;23.20;69.10;;;;;;5015602;28;20493;-72
2022/05/06 11:00:16;;;;;;;4.68;2.33;;;23.30;67.70;;;;;;5015359;28;20022;-71
2022/05/06 11:02:42;;;;;;;6.95;2.55;;;23.30;67.60;;;;;;5017647;28;20082;-73
2022/05/06 11:05:15;;;;;;;5.53;2.63;;;23.40;67.20;;;;;;5027765;28;20522;-73
2022/05/06 11:07:46;;;;;;;5.97;2.65;;;23.60;66.80;;;;;;5013003;28;20033;-72
2022/05/06 11:10:33;;;;;;;4.80;2.67;;;23.50;67.30;;;;;;5026311;28;20030;-72
2022/05/06 11:12:59;;;;;;;5.88;2.63;;;23.70;66.50;;;;;;5015615;28;20053;-71
2022/05/06 11:15:29;;;;;;;4.95;2.50;;;23.70;66.20;;;;;;5015498;28;20061;-71
2022/05/06 11:17:58;;;;;;;4.35;2.00;;;23.70;66.70;;;;;;5015582;28;20051;-71
2022/05/06 11:20:27;;;;;;;5.72;2.30;;;23.90;67.40;;;;;;5015110;28;20510;-71
2022/05/06 11:22:53;;;;;;;5.22;2.58;;;23.80;66.30;;;;;;5013697;28;20022;-71
2022/05/06 11:25:22;;;;;;;4.50;2.20;;;23.70;66.40;;;;;;5013914;28;20555;-72
2022/05/06 11:27:49;;;;;;;6.70;2.50;;;23.80;67.70;;;;;;5015221;28;20172;-72
2022/05/06 11:30:23;;;;;;;5.93;2.38;;;23.90;66.80;;;;;;5015441;28;20038;-72
2022/05/06 11:33:02;;;;;;;7.63;3.17;;;23.90;66.90;;;;;;5015987;28;20030;-71
2022/05/06 11:35:48;;;;;;;7.60;2.50;;;23.80;66.60;;;;;;5015235;28;20062;-72
2022/05/06 11:38:14;;;;;;;4.40;2.40;;;23.70;66.30;;;;;;5016048;28;20047;-71
2022/05/06 11:40:40;;;;;;;7.55;2.42;;;23.60;66.20;;;;;;5011932;28;20563;-73
2022/05/06 11:43:21;;;;;;;5.97;2.85;;;23.70;66.70;;;;;;5014759;28;20126;-72
2022/05/06 11:48:45;;;;;;;4.10;1.90;;;23.70;67.30;;;;;;5020447;28;20393;-71
2022/05/06 11:51:13;;;;;;;6.55;2.03;;;23.50;67.10;;;;;;5015334;28;20041;-71
2022/05/06 11:53:40;;;;;;;7.32;2.20;;;23.40;66.40;;;;;;5021800;28;20033;-71
2022/05/06 11:56:07;;;;;;;6.22;2.13;;;23.50;68.10;;;;;;5013426;28;20496;-72
2022/05/06 11:58:36;;;;;;;5.72;2.15;;;23.60;66.50;;;;;;5008500;28;20108;-71
2022/05/06 12:01:01;;;;;;;7.85;2.30;;;23.30;65.80;;;;;;5023460;28;20038;-71
2022/05/06 12:03:28;;;;;;;5.95;2.58;;;23.30;66.50;;;;;;5015353;28;20028;-71
2022/05/06 12:06:07;;;;;;;4.20;2.50;;;23.20;66.80;;;;;;5018022;28;20125;-71
2022/05/06 12:08:35;;;;;;;8.05;2.40;;;23.20;66.50;;;;;;5011450;28;20041;-71
2022/05/06 12:11:07;;;;;;;5.00;2.05;;;23.10;66.70;;;;;;5019649;28;20096;-71
2022/05/06 12:13:36;;;;;;;4.90;2.30;;;23.10;66.40;;;;;;5027946;28;20075;-71
2022/05/06 12:16:07;;;;;;;5.43;2.10;;;22.90;67.10;;;;;;5025385;28;20053;-71
2022/05/06 12:18:33;;;;;;;4.82;2.05;;;23.00;67.00;;;;;;5025405;28;20056;-71
2022/05/06 12:21:00;;;;;;;5.45;2.42;;;23.00;66.80;;;;;;5020123;28;20409;-71
2022/05/06 12:23:30;;;;;;;5.97;2.40;;;23.10;66.60;;;;;;5020310;28;20500;-71
2022/05/06 12:25:57;;;;;;;4.70;2.30;;;23.30;67.00;;;;;;5012694;28;20627;-71
2022/05/06 12:28:24;;;;;;;5.68;2.67;;;23.50;66.40;;;;;;5012167;28;20084;-70
2022/05/06 12:30:57;;;;;;;4.80;1.90;;;23.70;67.00;;;;;;5011842;28;20836;-70
2022/05/06 12:33:39;;;;;;;3.42;1.90;;;23.80;65.70;;;;;;5018999;28;20108;-70
2022/05/06 12:36:06;;;;;;;4.88;2.22;;;23.90;65.50;;;;;;5020481;28;20131;-70
2022/05/06 12:38:45;;;;;;;5.07;1.95;;;23.90;65.40;;;;;;5018538;28;20034;-70
2022/05/06 12:41:26;;;;;;;5.85;2.10;;;24.10;64.70;;;;;;5010693;28;20029;-71
2022/05/06 12:43:54;;;;;;;6.82;2.30;;;24.20;67.00;;;;;;5009693;28;20080;-71
2022/05/06 12:46:31;;;;;;;6.47;2.22;;;24.30;64.90;;;;;;5006581;28;20132;-71
2022/05/06 12:51:44;;;;;;;6.97;2.25;;;24.80;65.30;;;;;;5018667;28;20041;-70
2022/05/06 12:54:11;;;;;;;5.55;2.30;;;24.70;64.20;;;;;;5009648;28;20026;-71
2022/05/06 12:56:38;;;;;;;5.20;1.90;;;24.80;65.00;;;;;;5010245;28;20423;-71
2022/05/06 12:59:04;;;;;;;6.05;1.80;;;25.00;64.80;;;;;;5014487;28;20034;-70
2022/05/06 13:01:30;;;;;;;5.13;2.13;;;24.70;63.00;;;;;;5013075;28;20071;-70
2022/05/06 13:03:56;;;;;;;5.50;2.00;;;24.50;63.50;;;;;;5018907;28;20025;-69
2022/05/06 13:06:22;;;;;;;5.43;2.00;;;24.60;63.70;;;;;;5016658;28;20093;-71
2022/05/06 13:08:48;;;;;;;6.80;2.33;;;24.50;64.20;;;;;;5016962;28;20022;-70
2022/05/06 13:11:14;;;;;;;5.07;1.95;;;24.40;63.00;;;;;;5017387;28;20052;-70
2022/05/06 13:13:41;;;;;;;5.65;2.05;;;24.20;64.00;;;;;;5013335;28;20520;-71
2022/05/06 13:16:07;;;;;;;3.63;1.95;;;24.30;65.10;;;;;;5015565;28;20551;-70
2022/05/06 13:18:33;;;;;;;6.13;2.17;;;24.40;64.50;;;;;;5016546;28;20061;-71
2022/05/06 13:20:59;;;;;;;9.25;2.22;;;24.40;64.70;;;;;;5020258;28;20053;-70
2022/05/06 13:23:24;;;;;;;6.15;2.30;;;24.30;64.50;;;;;;5025782;28;20483;-69
2022/05/06 13:25:50;;;;;;;11.65;2.63;;;24.20;65.00;;;;;;5014856;28;20037;-71
2022/05/06 13:28:17;;;;;;;6.25;2.00;;;24.00;64.70;;;;;;5014958;28;20037;-70
2022/05/06 13:30:42;;;;;;;4.70;2.47;;;24.00;64.30;;;;;;5016704;28;20053;-71
2022/05/06 13:33:09;;;;;;;6.50;2.15;;;23.70;64.20;;;;;;5021992;28;20061;-71
2022/05/06 13:35:34;;;;;;;5.75;2.75;;;23.70;65.30;;;;;;5024724;28;20508;-69